Aérodrome :
LOGIN :

S'inscrire | Disclaimer

   EN    FR    IT 

 










Légende :    VFR   VFR Marginal   IFR   IFR Intensif   IFR Très Intensif
Visi : 
Plafond : 
>= 8 km
>= 3000ft
5 à 8 km
1000 à 3000 ft
1500m à 5 km
500 à 1000 ft
800 à 1500m
200 à 500 ft
< 800m
< 200 ft
Symboles :   Orages  Brouillard  Fortes neiges  Fortes précipitations  Vent > 20 kt
SIGMETs :   Divers  Orages  Givrage  Turbulence  Onde Orograph.  Cendres Volcan.







- Altitude de l'aérodrome : 83 ft
- Code IATA : LHR
- Voir les cartes d'approche


EGLL - London Heathrow

DERNIER METAR :
  • 190650Z AUTO 23007KT 200V260 9999 NCD 03/03 Q1018 NOSIG

METARs EXPIRÉS :
  • 190620Z AUTO 20006KT 170V250 9999 NCD 03/03 Q1018 NOSIG
  • 190550Z AUTO 21005KT 9999 NCD 03/03 Q1018
  • 190520Z AUTO 21003KT 9999 NCD 04/03 Q1018 NOSIG
  • 190450Z AUTO 22001KT 9999 NCD 04/03 Q1018 NOSIG
  • 190420Z AUTO 25003KT 9999 NCD 04/03 Q1018 NOSIG

TAF TAF EGLL
Valide du 19 à 06h jusqu'au 20 à 12h UTC


190459Z 1906/2012 24006KT 9999 FEW015
PROB40
TEMPO 1906/1909 7000 BKN006
Pas de NOTAMs connus pour ce terrain.



MET'MAP, la Météo Aéronautique d'un coup d'oeil ! - Copyright ORBIFLY Décembre 2007 - Disclaimer

ORBIFLY MET'MAP TEAM :

Programmation & Développement : Alexandra Zaïnal
Conception & Développement : Baudouin d'Aumeries
Co-Programmation & Développement : Marc-Olivier Méhu
Soutien technique & logistique : Manuel Goepfert

Contact : metmap@orbifly.com




SOURCES & CREDITS :

   NOAA